Aviation Digital Data Service (ADDS)

Output produced by METARs form (1248 UTC 22 March 2019)
found at http://www.aviationweather.gov/metar/data/
 
METAR text: KBUF 221206Z 26009KT 10SM -RA OVC014 02/00 A2963 RMK AO2 P0000 T00220000
Conditions at: KBUF (BUFFALO/CHEEKTOW, NY, US) observed 1206 UTC 22 March 2019
Temperature: 2.2°C (36°F)
Dewpoint: 0.0°C (32°F) [RH = 85%]
Pressure (altimeter): 29.63 inches Hg (1003.5 mb)
Winds: from the W (260 degrees) at 10 MPH (9 knots; 4.6 m/s)
Visibility: 10 or more miles (16+ km)
Ceiling: 1400 feet AGL
Clouds: overcast cloud deck at 1400 feet AGL
Weather: -RA  (light rain)

METAR text: KBUF 221154Z 26007KT 10SM -RA BKN020 OVC033 02/00 A2964 RMK AO2 RAB29 SLP042 P0000 60000 T00220000 10033 20022 56005
Conditions at: KBUF (BUFFALO/CHEEKTOW, NY, US) observed 1154 UTC 22 March 2019
Temperature: 2.2°C (36°F)
Dewpoint: 0.0°C (32°F) [RH = 85%]
Pressure (altimeter): 29.64 inches Hg (1003.8 mb)
[Sea-level pressure: 1004.2 mb]
Winds: from the W (260 degrees) at 8 MPH (7 knots; 3.6 m/s)
Visibility: 10 or more miles (16+ km)
Ceiling: 2000 feet AGL
Clouds: broken clouds at 2000 feet AGL
overcast cloud deck at 3300 feet AGL
Weather: -RA  (light rain)

METAR text: KBUF 221138Z 27008KT 10SM -RA BKN020 OVC033 02/00 A2964 RMK AO2 RAB29 P0000 T00220000
Conditions at: KBUF (BUFFALO/CHEEKTOW, NY, US) observed 1138 UTC 22 March 2019
Temperature: 2.2°C (36°F)
Dewpoint: 0.0°C (32°F) [RH = 85%]
Pressure (altimeter): 29.64 inches Hg (1003.8 mb)
Winds: from the W (270 degrees) at 9 MPH (8 knots; 4.1 m/s)
Visibility: 10 or more miles (16+ km)
Ceiling: 2000 feet AGL
Clouds: broken clouds at 2000 feet AGL
overcast cloud deck at 3300 feet AGL
Weather: -RA  (light rain)

METAR text: KBUF 221105Z 27007KT 10SM SCT021 OVC033 02/M01 A2964 RMK AO2 T00221006
Conditions at: KBUF (BUFFALO/CHEEKTOW, NY, US) observed 1105 UTC 22 March 2019
Temperature: 2.2°C (36°F)
Dewpoint: -0.6°C (31°F) [RH = 82%]
Pressure (altimeter): 29.64 inches Hg (1003.8 mb)
Winds: from the W (270 degrees) at 8 MPH (7 knots; 3.6 m/s)
Visibility: 10 or more miles (16+ km)
Ceiling: 3300 feet AGL
Clouds: scattered clouds at 2100 feet AGL
overcast cloud deck at 3300 feet AGL
Weather: no significant weather observed at this time

METAR text: KBUF 221054Z 27009KT 10SM SCT019 BKN024 OVC044 02/M01 A2964 RMK AO2 SLP043 T00221006
Conditions at: KBUF (BUFFALO/CHEEKTOW, NY, US) observed 1054 UTC 22 March 2019
Temperature: 2.2°C (36°F)
Dewpoint: -0.6°C (31°F) [RH = 82%]
Pressure (altimeter): 29.64 inches Hg (1003.8 mb)
[Sea-level pressure: 1004.3 mb]
Winds: from the W (270 degrees) at 10 MPH (9 knots; 4.6 m/s)
Visibility: 10 or more miles (16+ km)
Ceiling: 2400 feet AGL
Clouds: scattered clouds at 1900 feet AGL
broken clouds at 2400 feet AGL
overcast cloud deck at 4400 feet AGL
Weather: no significant weather observed at this time

METAR text: KBUF 221050Z 27007KT 10SM SCT019 BKN024 OVC044 02/00 A2964 RMK AO2
Conditions at: KBUF (BUFFALO/CHEEKTOW, NY, US) observed 1050 UTC 22 March 2019
Temperature: 2.0°C (36°F)
Dewpoint: 0.0°C (32°F) [RH = 87%]
Pressure (altimeter): 29.64 inches Hg (1003.8 mb)
Winds: from the W (270 degrees) at 8 MPH (7 knots; 3.6 m/s)
Visibility: 10 or more miles (16+ km)
Ceiling: 2400 feet AGL
Clouds: scattered clouds at 1900 feet AGL
broken clouds at 2400 feet AGL
overcast cloud deck at 4400 feet AGL
Weather: no significant weather observed at this time

METAR text: KBUF 220954Z 27008KT 10SM OVC034 02/M01 A2965 RMK AO2 SLP046 T00221006
Conditions at: KBUF (BUFFALO/CHEEKTOW, NY, US) observed 0954 UTC 22 March 2019
Temperature: 2.2°C (36°F)
Dewpoint: -0.6°C (31°F) [RH = 82%]
Pressure (altimeter): 29.65 inches Hg (1004.1 mb)
[Sea-level pressure: 1004.6 mb]
Winds: from the W (270 degrees) at 9 MPH (8 knots; 4.1 m/s)
Visibility: 10 or more miles (16+ km)
Ceiling: 3400 feet AGL
Clouds: overcast cloud deck at 3400 feet AGL
Weather: no significant weather observed at this time

METAR text: KBUF 220854Z 27009KT 10SM OVC033 03/M01 A2966 RMK AO2 SLP050 T00281006 58017
Conditions at: KBUF (BUFFALO/CHEEKTOW, NY, US) observed 0854 UTC 22 March 2019
Temperature: 2.8°C (37°F)
Dewpoint: -0.6°C (31°F) [RH = 78%]
Pressure (altimeter): 29.66 inches Hg (1004.5 mb)
[Sea-level pressure: 1005.0 mb]
Winds: from the W (270 degrees) at 10 MPH (9 knots; 4.6 m/s)
Visibility: 10 or more miles (16+ km)
Ceiling: 3300 feet AGL
Clouds: overcast cloud deck at 3300 feet AGL
Weather: no significant weather observed at this time

METAR text: KBUF 220841Z 28007KT 10SM OVC031 03/M01 A2967 RMK AO2 T00281006
Conditions at: KBUF (BUFFALO/CHEEKTOW, NY, US) observed 0841 UTC 22 March 2019
Temperature: 2.8°C (37°F)
Dewpoint: -0.6°C (31°F) [RH = 78%]
Pressure (altimeter): 29.67 inches Hg (1004.8 mb)
Winds: from the W (280 degrees) at 8 MPH (7 knots; 3.6 m/s)
Visibility: 10 or more miles (16+ km)
Ceiling: 3100 feet AGL
Clouds: overcast cloud deck at 3100 feet AGL
Weather: no significant weather observed at this time

METAR text: KBUF 220754Z 27007KT 10SM BKN021 BKN034 OVC041 03/M01 A2969 RMK AO2 SLP057 T00281006
Conditions at: KBUF (BUFFALO/CHEEKTOW, NY, US) observed 0754 UTC 22 March 2019
Temperature: 2.8°C (37°F)
Dewpoint: -0.6°C (31°F) [RH = 78%]
Pressure (altimeter): 29.69 inches Hg (1005.5 mb)
[Sea-level pressure: 1005.7 mb]
Winds: from the W (270 degrees) at 8 MPH (7 knots; 3.6 m/s)
Visibility: 10 or more miles (16+ km)
Ceiling: 2100 feet AGL
Clouds: broken clouds at 2100 feet AGL
broken clouds at 3400 feet AGL
overcast cloud deck at 4100 feet AGL
Weather: no significant weather observed at this time

METAR text: KBUF 220654Z 28009KT 10SM OVC033 03/00 A2970 RMK AO2 SLP060 T00330000
Conditions at: KBUF (BUFFALO/CHEEKTOW, NY, US) observed 0654 UTC 22 March 2019
Temperature: 3.3°C (38°F)
Dewpoint: 0.0°C (32°F) [RH = 79%]
Pressure (altimeter): 29.70 inches Hg (1005.8 mb)
[Sea-level pressure: 1006.0 mb]
Winds: from the W (280 degrees) at 10 MPH (9 knots; 4.6 m/s)
Visibility: 10 or more miles (16+ km)
Ceiling: 3300 feet AGL
Clouds: overcast cloud deck at 3300 feet AGL
Weather: no significant weather observed at this time

METAR text: KBUF 220554Z 29013KT 10SM SCT017 OVC032 03/01 A2971 RMK AO2 SLP067 T00330006 10050 20022 58014
Conditions at: KBUF (BUFFALO/CHEEKTOW, NY, US) observed 0554 UTC 22 March 2019
Temperature: 3.3°C (38°F)
Dewpoint: 0.6°C (33°F) [RH = 82%]
Pressure (altimeter): 29.71 inches Hg (1006.2 mb)
[Sea-level pressure: 1006.7 mb]
Winds: from the WNW (290 degrees) at 15 MPH (13 knots; 6.7 m/s)
Visibility: 10 or more miles (16+ km)
Ceiling: 3200 feet AGL
Clouds: scattered clouds at 1700 feet AGL
overcast cloud deck at 3200 feet AGL
Weather: no significant weather observed at this time

METAR text: KBUF 220504Z 24005KT 6SM BR SCT020 OVC034 02/01 A2973 RMK AO2 T00220011
Conditions at: KBUF (BUFFALO/CHEEKTOW, NY, US) observed 0504 UTC 22 March 2019
Temperature: 2.2°C (36°F)
Dewpoint: 1.1°C (34°F) [RH = 92%]
Pressure (altimeter): 29.73 inches Hg (1006.9 mb)
Winds: from the WSW (240 degrees) at 6 MPH (5 knots; 2.6 m/s)
Visibility: 6 miles (10 km)
Ceiling: 3400 feet AGL
Clouds: scattered clouds at 2000 feet AGL
overcast cloud deck at 3400 feet AGL
Weather: BR  (mist)

METAR text: KBUF 220454Z 23005KT 5SM BR BKN019 OVC030 02/01 A2973 RMK AO2 SLP073 T00220011 401000022
Conditions at: KBUF (BUFFALO/CHEEKTOW, NY, US) observed 0454 UTC 22 March 2019
Temperature: 2.2°C (36°F)
Dewpoint: 1.1°C (34°F) [RH = 92%]
Pressure (altimeter): 29.73 inches Hg (1006.9 mb)
[Sea-level pressure: 1007.3 mb]
Winds: from the SW (230 degrees) at 6 MPH (5 knots; 2.6 m/s)
Visibility: 5 miles ( 8 km)
Ceiling: 1900 feet AGL
Clouds: broken clouds at 1900 feet AGL
overcast cloud deck at 3000 feet AGL
Weather: BR  (mist)

METAR text: KBUF 220401Z 21004KT 4SM BR SCT003 OVC017 02/02 A2975 RMK AO2 T00220017
Conditions at: KBUF (BUFFALO/CHEEKTOW, NY, US) observed 0401 UTC 22 March 2019
Temperature: 2.2°C (36°F)
Dewpoint: 1.7°C (35°F) [RH = 96%]
Pressure (altimeter): 29.75 inches Hg (1007.5 mb)
Winds: from the SSW (210 degrees) at 5 MPH (4 knots; 2.1 m/s)
Visibility: 4 miles ( 6 km)
Ceiling: 1700 feet AGL
Clouds: scattered clouds at 300 feet AGL
overcast cloud deck at 1700 feet AGL
Weather: BR  (mist)

METAR text: KBUF 220354Z 21006KT 5SM BR BKN003 OVC017 02/02 A2975 RMK AO2 SLP078 T00220017
Conditions at: KBUF (BUFFALO/CHEEKTOW, NY, US) observed 0354 UTC 22 March 2019
Temperature: 2.2°C (36°F)
Dewpoint: 1.7°C (35°F) [RH = 96%]
Pressure (altimeter): 29.75 inches Hg (1007.5 mb)
[Sea-level pressure: 1007.8 mb]
Winds: from the SSW (210 degrees) at 7 MPH (6 knots; 3.1 m/s)
Visibility: 5 miles ( 8 km)
Ceiling: 300 feet AGL
Clouds: broken clouds at 300 feet AGL
overcast cloud deck at 1700 feet AGL
Weather: BR  (mist)

METAR text: KBUF 220302Z 23009KT 5SM BR BKN004 OVC023 03/02 A2975 RMK AO2 T00280017
Conditions at: KBUF (BUFFALO/CHEEKTOW, NY, US) observed 0302 UTC 22 March 2019
Temperature: 2.8°C (37°F)
Dewpoint: 1.7°C (35°F) [RH = 92%]
Pressure (altimeter): 29.75 inches Hg (1007.5 mb)
Winds: from the SW (230 degrees) at 10 MPH (9 knots; 4.6 m/s)
Visibility: 5 miles ( 8 km)
Ceiling: 400 feet AGL
Clouds: broken clouds at 400 feet AGL
overcast cloud deck at 2300 feet AGL
Weather: BR  (mist)

METAR text: KBUF 220254Z 22010KT 7SM SCT004 OVC023 03/02 A2976 RMK AO2 SLP081 T00330017 56009
Conditions at: KBUF (BUFFALO/CHEEKTOW, NY, US) observed 0254 UTC 22 March 2019
Temperature: 3.3°C (38°F)
Dewpoint: 1.7°C (35°F) [RH = 89%]
Pressure (altimeter): 29.76 inches Hg (1007.9 mb)
[Sea-level pressure: 1008.1 mb]
Winds: from the SW (220 degrees) at 12 MPH (10 knots; 5.1 m/s)
Visibility: 7 miles (11 km)
Ceiling: 2300 feet AGL
Clouds: scattered clouds at 400 feet AGL
overcast cloud deck at 2300 feet AGL
Weather: no significant weather observed at this time

METAR text: KBUF 220208Z 24008KT 10SM BKN027 OVC042 04/02 A2976 RMK AO2 T00390017
Conditions at: KBUF (BUFFALO/CHEEKTOW, NY, US) observed 0208 UTC 22 March 2019
Temperature: 3.9°C (39°F)
Dewpoint: 1.7°C (35°F) [RH = 86%]
Pressure (altimeter): 29.76 inches Hg (1007.9 mb)
Winds: from the WSW (240 degrees) at 9 MPH (8 knots; 4.1 m/s)
Visibility: 10 or more miles (16+ km)
Ceiling: 2700 feet AGL
Clouds: broken clouds at 2700 feet AGL
overcast cloud deck at 4200 feet AGL
Weather: no significant weather observed at this time

METAR text: KBUF 220154Z 24009KT 10SM SCT029 OVC042 04/01 A2977 RMK AO2 SLP085 T00390011
Conditions at: KBUF (BUFFALO/CHEEKTOW, NY, US) observed 0154 UTC 22 March 2019
Temperature: 3.9°C (39°F)
Dewpoint: 1.1°C (34°F) [RH = 82%]
Pressure (altimeter): 29.77 inches Hg (1008.2 mb)
[Sea-level pressure: 1008.5 mb]
Winds: from the WSW (240 degrees) at 10 MPH (9 knots; 4.6 m/s)
Visibility: 10 or more miles (16+ km)
Ceiling: 4200 feet AGL
Clouds: scattered clouds at 2900 feet AGL
overcast cloud deck at 4200 feet AGL
Weather: no significant weather observed at this time

METAR text: KBUF 220054Z 21005KT 10SM BKN035 OVC043 04/00 A2978 RMK AO2 SLP091 T00440000
Conditions at: KBUF (BUFFALO/CHEEKTOW, NY, US) observed 0054 UTC 22 March 2019
Temperature: 4.4°C (40°F)
Dewpoint: 0.0°C (32°F) [RH = 73%]
Pressure (altimeter): 29.78 inches Hg (1008.5 mb)
[Sea-level pressure: 1009.1 mb]
Winds: from the SSW (210 degrees) at 6 MPH (5 knots; 2.6 m/s)
Visibility: 10 or more miles (16+ km)
Ceiling: 3500 feet AGL
Clouds: broken clouds at 3500 feet AGL
overcast cloud deck at 4300 feet AGL
Weather: no significant weather observed at this time

METAR text: KBUF 212354Z 23007KT 10SM OVC032 05/M01 A2978 RMK AO2 SLP091 T00501011 10100 20050 56004
Conditions at: KBUF (BUFFALO/CHEEKTOW, NY, US) observed 2354 UTC 21 March 2019
Temperature: 5.0°C (41°F)
Dewpoint: -1.1°C (30°F) [RH = 65%]
Pressure (altimeter): 29.78 inches Hg (1008.5 mb)
[Sea-level pressure: 1009.1 mb]
Winds: from the SW (230 degrees) at 8 MPH (7 knots; 3.6 m/s)
Visibility: 10 or more miles (16+ km)
Ceiling: 3200 feet AGL
Clouds: overcast cloud deck at 3200 feet AGL
Weather: no significant weather observed at this time

METAR text: KBUF 212254Z 24005KT 10SM SCT028 OVC033 06/M01 A2979 RMK AO2 SLP092 T00611006
Conditions at: KBUF (BUFFALO/CHEEKTOW, NY, US) observed 2254 UTC 21 March 2019
Temperature: 6.1°C (43°F)
Dewpoint: -0.6°C (31°F) [RH = 62%]
Pressure (altimeter): 29.79 inches Hg (1008.9 mb)
[Sea-level pressure: 1009.2 mb]
Winds: from the WSW (240 degrees) at 6 MPH (5 knots; 2.6 m/s)
Visibility: 10 or more miles (16+ km)
Ceiling: 3300 feet AGL
Clouds: scattered clouds at 2800 feet AGL
overcast cloud deck at 3300 feet AGL
Weather: no significant weather observed at this time

METAR text: KBUF 212154Z 22005KT 10SM OVC034 08/01 A2979 RMK AO2 SLP091 T00830006
Conditions at: KBUF (BUFFALO/CHEEKTOW, NY, US) observed 2154 UTC 21 March 2019
Temperature: 8.3°C (47°F)
Dewpoint: 0.6°C (33°F) [RH = 58%]
Pressure (altimeter): 29.79 inches Hg (1008.9 mb)
[Sea-level pressure: 1009.1 mb]
Winds: from the SW (220 degrees) at 6 MPH (5 knots; 2.6 m/s)
Visibility: 10 or more miles (16+ km)
Ceiling: 3400 feet AGL
Clouds: overcast cloud deck at 3400 feet AGL
Weather: no significant weather observed at this time

METAR text: KBUF 212054Z 24006KT 10SM BKN036 OVC055 09/02 A2979 RMK AO2 SLP093 T00890017 56019
Conditions at: KBUF (BUFFALO/CHEEKTOW, NY, US) observed 2054 UTC 21 March 2019
Temperature: 8.9°C (48°F)
Dewpoint: 1.7°C (35°F) [RH = 61%]
Pressure (altimeter): 29.79 inches Hg (1008.9 mb)
[Sea-level pressure: 1009.3 mb]
Winds: from the WSW (240 degrees) at 7 MPH (6 knots; 3.1 m/s)
Visibility: 10 or more miles (16+ km)
Ceiling: 3600 feet AGL
Clouds: broken clouds at 3600 feet AGL
overcast cloud deck at 5500 feet AGL
Weather: no significant weather observed at this time

METAR text: KBUF 211954Z 23009KT 10SM FEW045 BKN055 OVC180 09/01 A2981 RMK AO2 SLP099 T00940011
Conditions at: KBUF (BUFFALO/CHEEKTOW, NY, US) observed 1954 UTC 21 March 2019
Temperature: 9.4°C (49°F)
Dewpoint: 1.1°C (34°F) [RH = 56%]
Pressure (altimeter): 29.81 inches Hg (1009.6 mb)
[Sea-level pressure: 1009.9 mb]
Winds: from the SW (230 degrees) at 10 MPH (9 knots; 4.6 m/s)
Visibility: 10 or more miles (16+ km)
Ceiling: 5500 feet AGL
Clouds: few clouds at 4500 feet AGL
broken clouds at 5500 feet AGL
overcast cloud deck at 18000 feet AGL
Weather: no significant weather observed at this time

METAR text: KBUF 211854Z 21009KT 10SM FEW046 SCT070 OVC180 10/03 A2982 RMK AO2 SLP103 T01000028
Conditions at: KBUF (BUFFALO/CHEEKTOW, NY, US) observed 1854 UTC 21 March 2019
Temperature: 10.0°C (50°F)
Dewpoint: 2.8°C (37°F) [RH = 61%]
Pressure (altimeter): 29.82 inches Hg (1009.9 mb)
[Sea-level pressure: 1010.3 mb]
Winds: from the SSW (210 degrees) at 10 MPH (9 knots; 4.6 m/s)
Visibility: 10 or more miles (16+ km)
Ceiling: 18000 feet AGL
Clouds: few clouds at 4600 feet AGL
scattered clouds at 7000 feet AGL
overcast cloud deck at 18000 feet AGL
Weather: no significant weather observed at this time

METAR text: KBUF 211754Z 21012KT 10SM FEW050 BKN060 OVC200 10/02 A2985 RMK AO2 SLP112 T01000022 10100 20044 58020
Conditions at: KBUF (BUFFALO/CHEEKTOW, NY, US) observed 1754 UTC 21 March 2019
Temperature: 10.0°C (50°F)
Dewpoint: 2.2°C (36°F) [RH = 58%]
Pressure (altimeter): 29.85 inches Hg (1010.9 mb)
[Sea-level pressure: 1011.2 mb]
Winds: from the SSW (210 degrees) at 14 MPH (12 knots; 6.2 m/s)
Visibility: 10 or more miles (16+ km)
Ceiling: 6000 feet AGL
Clouds: few clouds at 5000 feet AGL
broken clouds at 6000 feet AGL
overcast cloud deck at 20000 feet AGL
Weather: no significant weather observed at this time

METAR text: KBUF 211654Z 19011KT 10SM BKN060 OVC220 10/01 A2987 RMK AO2 SLP121 T01000006
Conditions at: KBUF (BUFFALO/CHEEKTOW, NY, US) observed 1654 UTC 21 March 2019
Temperature: 10.0°C (50°F)
Dewpoint: 0.6°C (33°F) [RH = 52%]
Pressure (altimeter): 29.87 inches Hg (1011.6 mb)
[Sea-level pressure: 1012.1 mb]
Winds: from the S (190 degrees) at 13 MPH (11 knots; 5.7 m/s)
Visibility: 10 or more miles (16+ km)
Ceiling: 6000 feet AGL
Clouds: broken clouds at 6000 feet AGL
overcast cloud deck at 22000 feet AGL
Weather: no significant weather observed at this time

METAR text: KBUF 211554Z 18014KT 10SM BKN065 OVC220 10/00 A2989 RMK AO2 SLP127 ACSL DSNT SE-SW T01000000
Conditions at: KBUF (BUFFALO/CHEEKTOW, NY, US) observed 1554 UTC 21 March 2019
Temperature: 10.0°C (50°F)
Dewpoint: 0.0°C (32°F) [RH = 50%]
Pressure (altimeter): 29.89 inches Hg (1012.3 mb)
[Sea-level pressure: 1012.7 mb]
Winds: from the S (180 degrees) at 16 MPH (14 knots; 7.2 m/s)
Visibility: 10 or more miles (16+ km)
Ceiling: 6500 feet AGL
Clouds: broken clouds at 6500 feet AGL
overcast cloud deck at 22000 feet AGL
Weather: no significant weather observed at this time

METAR text: KBUF 211454Z 16007KT 10SM BKN065 OVC220 08/M02 A2991 RMK AO2 SLP134 T00831017 56010
Conditions at: KBUF (BUFFALO/CHEEKTOW, NY, US) observed 1454 UTC 21 March 2019
Temperature: 8.3°C (47°F)
Dewpoint: -1.7°C (29°F) [RH = 49%]
Pressure (altimeter): 29.91 inches Hg (1013.0 mb)
[Sea-level pressure: 1013.4 mb]
Winds: from the SSE (160 degrees) at 8 MPH (7 knots; 3.6 m/s)
Visibility: 10 or more miles (16+ km)
Ceiling: 6500 feet AGL
Clouds: broken clouds at 6500 feet AGL
overcast cloud deck at 22000 feet AGL
Weather: no significant weather observed at this time

METAR text: KBUF 211354Z 15007KT 10SM FEW100 OVC220 07/M02 A2992 RMK AO2 SLP136 T00671022
Conditions at: KBUF (BUFFALO/CHEEKTOW, NY, US) observed 1354 UTC 21 March 2019
Temperature: 6.7°C (44°F)
Dewpoint: -2.2°C (28°F) [RH = 53%]
Pressure (altimeter): 29.92 inches Hg (1013.3 mb)
[Sea-level pressure: 1013.6 mb]
Winds: from the SSE (150 degrees) at 8 MPH (7 knots; 3.6 m/s)
Visibility: 10 or more miles (16+ km)
Ceiling: 22000 feet AGL
Clouds: few clouds at 10000 feet AGL
overcast cloud deck at 22000 feet AGL
Weather: no significant weather observed at this time

METAR text: KBUF 211254Z 15006KT 10SM SCT070 BKN090 BKN100 OVC220 06/M02 A2993 RMK AO2 SLP139 T00561017
Conditions at: KBUF (BUFFALO/CHEEKTOW, NY, US) observed 1254 UTC 21 March 2019
Temperature: 5.6°C (42°F)
Dewpoint: -1.7°C (29°F) [RH = 59%]
Pressure (altimeter): 29.93 inches Hg (1013.6 mb)
[Sea-level pressure: 1013.9 mb]
Winds: from the SSE (150 degrees) at 7 MPH (6 knots; 3.1 m/s)
Visibility: 10 or more miles (16+ km)
Ceiling: 9000 feet AGL
Clouds: scattered clouds at 7000 feet AGL
broken clouds at 9000 feet AGL
broken clouds at 10000 feet AGL
overcast cloud deck at 22000 feet AGL
Weather: no significant weather observed at this time

METAR text: KBUF 211154Z 12006KT 10SM FEW048 OVC070 04/00 A2994 RMK AO2 SLP144 60002 70002 T00440000 10050 20033 56016
Conditions at: KBUF (BUFFALO/CHEEKTOW, NY, US) observed 1154 UTC 21 March 2019
Temperature: 4.4°C (40°F)
Dewpoint: 0.0°C (32°F) [RH = 73%]
Pressure (altimeter): 29.94 inches Hg (1014.0 mb)
[Sea-level pressure: 1014.4 mb]
Winds: from the ESE (120 degrees) at 7 MPH (6 knots; 3.1 m/s)
Visibility: 10 or more miles (16+ km)
Ceiling: 7000 feet AGL
Clouds: few clouds at 4800 feet AGL
overcast cloud deck at 7000 feet AGL
Weather: no significant weather observed at this time

METAR text: KBUF 211054Z 07006KT 10SM OVC065 03/01 A2996 RMK AO2 SLP149 T00330006
Conditions at: KBUF (BUFFALO/CHEEKTOW, NY, US) observed 1054 UTC 21 March 2019
Temperature: 3.3°C (38°F)
Dewpoint: 0.6°C (33°F) [RH = 82%]
Pressure (altimeter): 29.96 inches Hg (1014.6 mb)
[Sea-level pressure: 1014.9 mb]
Winds: from the ENE (70 degrees) at 7 MPH (6 knots; 3.1 m/s)
Visibility: 10 or more miles (16+ km)
Ceiling: 6500 feet AGL
Clouds: overcast cloud deck at 6500 feet AGL
Weather: no significant weather observed at this time

METAR text: KBUF 210954Z 10006KT 10SM FEW065 OVC080 03/01 A2997 RMK AO2 SLP152 T00330011
Conditions at: KBUF (BUFFALO/CHEEKTOW, NY, US) observed 0954 UTC 21 March 2019
Temperature: 3.3°C (38°F)
Dewpoint: 1.1°C (34°F) [RH = 85%]
Pressure (altimeter): 29.97 inches Hg (1015.0 mb)
[Sea-level pressure: 1015.2 mb]
Winds: from the E (100 degrees) at 7 MPH (6 knots; 3.1 m/s)
Visibility: 10 or more miles (16+ km)
Ceiling: 8000 feet AGL
Clouds: few clouds at 6500 feet AGL
overcast cloud deck at 8000 feet AGL
Weather: no significant weather observed at this time

METAR text: KBUF 210854Z 14007KT 10SM OVC080 04/01 A2999 RMK AO2 RAE23 SLP160 P0002 60002 T00390011 58017
Conditions at: KBUF (BUFFALO/CHEEKTOW, NY, US) observed 0854 UTC 21 March 2019
Temperature: 3.9°C (39°F)
Dewpoint: 1.1°C (34°F) [RH = 82%]
Pressure (altimeter): 29.99 inches Hg (1015.7 mb)
[Sea-level pressure: 1016.0 mb]
Winds: from the SE (140 degrees) at 8 MPH (7 knots; 3.6 m/s)
Visibility: 10 or more miles (16+ km)
Ceiling: 8000 feet AGL
Clouds: overcast cloud deck at 8000 feet AGL
Weather: no significant weather observed at this time

METAR text: KBUF 210820Z 10007KT 10SM -RA BKN034 OVC065 04/02 A2999 RMK AO2 P0001 T00390017
Conditions at: KBUF (BUFFALO/CHEEKTOW, NY, US) observed 0820 UTC 21 March 2019
Temperature: 3.9°C (39°F)
Dewpoint: 1.7°C (35°F) [RH = 86%]
Pressure (altimeter): 29.99 inches Hg (1015.7 mb)
Winds: from the E (100 degrees) at 8 MPH (7 knots; 3.6 m/s)
Visibility: 10 or more miles (16+ km)
Ceiling: 3400 feet AGL
Clouds: broken clouds at 3400 feet AGL
overcast cloud deck at 6500 feet AGL
Weather: -RA  (light rain)

METAR text: KBUF 210801Z 18005KT 7SM -RA OVC025 04/01 A3002 RMK AO2 P0001 T00440011
Conditions at: KBUF (BUFFALO/CHEEKTOW, NY, US) observed 0801 UTC 21 March 2019
Temperature: 4.4°C (40°F)
Dewpoint: 1.1°C (34°F) [RH = 79%]
Pressure (altimeter): 30.02 inches Hg (1016.7 mb)
Winds: from the S (180 degrees) at 6 MPH (5 knots; 2.6 m/s)
Visibility: 7 miles (11 km)
Ceiling: 2500 feet AGL
Clouds: overcast cloud deck at 2500 feet AGL
Weather: -RA  (light rain)

METAR text: KBUF 210754Z 19006KT 9SM -RA OVC031 04/01 A3002 RMK AO2 RAB34 SLP172 P0000 T00440006
Conditions at: KBUF (BUFFALO/CHEEKTOW, NY, US) observed 0754 UTC 21 March 2019
Temperature: 4.4°C (40°F)
Dewpoint: 0.6°C (33°F) [RH = 76%]
Pressure (altimeter): 30.02 inches Hg (1016.7 mb)
[Sea-level pressure: 1017.2 mb]
Winds: from the S (190 degrees) at 7 MPH (6 knots; 3.1 m/s)
Visibility: 9 miles (14 km)
Ceiling: 3100 feet AGL
Clouds: overcast cloud deck at 3100 feet AGL
Weather: -RA  (light rain)

METAR text: KBUF 210654Z 10005KT 10SM OVC055 04/01 A3003 RMK AO2 SLP174 T00440011
Conditions at: KBUF (BUFFALO/CHEEKTOW, NY, US) observed 0654 UTC 21 March 2019
Temperature: 4.4°C (40°F)
Dewpoint: 1.1°C (34°F) [RH = 79%]
Pressure (altimeter): 30.03 inches Hg (1017.0 mb)
[Sea-level pressure: 1017.4 mb]
Winds: from the E (100 degrees) at 6 MPH (5 knots; 2.6 m/s)
Visibility: 10 or more miles (16+ km)
Ceiling: 5500 feet AGL
Clouds: overcast cloud deck at 5500 feet AGL
Weather: no significant weather observed at this time

METAR text: KBUF 210554Z 00000KT 10SM OVC065 05/01 A3004 RMK AO2 SLP177 60000 T00500006 10078 20044 58011
Conditions at: KBUF (BUFFALO/CHEEKTOW, NY, US) observed 0554 UTC 21 March 2019
Temperature: 5.0°C (41°F)
Dewpoint: 0.6°C (33°F) [RH = 73%]
Pressure (altimeter): 30.04 inches Hg (1017.4 mb)
[Sea-level pressure: 1017.7 mb]
Winds: calm
Visibility: 10 or more miles (16+ km)
Ceiling: 6500 feet AGL
Clouds: overcast cloud deck at 6500 feet AGL
Weather: no significant weather observed at this time

METAR text: KBUF 210454Z 00000KT 10SM OVC080 04/01 A3004 RMK AO2 RAE51 SLP179 P0000 T00440006 401001022
Conditions at: KBUF (BUFFALO/CHEEKTOW, NY, US) observed 0454 UTC 21 March 2019
Temperature: 4.4°C (40°F)
Dewpoint: 0.6°C (33°F) [RH = 76%]
Pressure (altimeter): 30.04 inches Hg (1017.4 mb)
[Sea-level pressure: 1017.9 mb]
Winds: calm
Visibility: 10 or more miles (16+ km)
Ceiling: 8000 feet AGL
Clouds: overcast cloud deck at 8000 feet AGL
Weather: no significant weather observed at this time

METAR text: KBUF 210354Z 24006KT 10SM -RA SCT055 BKN075 OVC130 06/M02 A3008 RMK AO2 RAB41 SLP190 P0000 T00611017
Conditions at: KBUF (BUFFALO/CHEEKTOW, NY, US) observed 0354 UTC 21 March 2019
Temperature: 6.1°C (43°F)
Dewpoint: -1.7°C (29°F) [RH = 57%]
Pressure (altimeter): 30.08 inches Hg (1018.7 mb)
[Sea-level pressure: 1019.0 mb]
Winds: from the WSW (240 degrees) at 7 MPH (6 knots; 3.1 m/s)
Visibility: 10 or more miles (16+ km)
Ceiling: 7500 feet AGL
Clouds: scattered clouds at 5500 feet AGL
broken clouds at 7500 feet AGL
overcast cloud deck at 13000 feet AGL
Weather: -RA  (light rain)

METAR text: KBUF 210254Z 00000KT 10SM BKN060 OVC080 06/M02 A3007 RMK AO2 SLP189 T00561017 50004
Conditions at: KBUF (BUFFALO/CHEEKTOW, NY, US) observed 0254 UTC 21 March 2019
Temperature: 5.6°C (42°F)
Dewpoint: -1.7°C (29°F) [RH = 59%]
Pressure (altimeter): 30.07 inches Hg (1018.4 mb)
[Sea-level pressure: 1018.9 mb]
Winds: calm
Visibility: 10 or more miles (16+ km)
Ceiling: 6000 feet AGL
Clouds: broken clouds at 6000 feet AGL
overcast cloud deck at 8000 feet AGL
Weather: no significant weather observed at this time

METAR text: KBUF 210154Z 30004KT 10SM FEW050 OVC070 06/M02 A3008 RMK AO2 SLP190 T00611022
Conditions at: KBUF (BUFFALO/CHEEKTOW, NY, US) observed 0154 UTC 21 March 2019
Temperature: 6.1°C (43°F)
Dewpoint: -2.2°C (28°F) [RH = 55%]
Pressure (altimeter): 30.08 inches Hg (1018.7 mb)
[Sea-level pressure: 1019.0 mb]
Winds: from the WNW (300 degrees) at 5 MPH (4 knots; 2.1 m/s)
Visibility: 10 or more miles (16+ km)
Ceiling: 7000 feet AGL
Clouds: few clouds at 5000 feet AGL
overcast cloud deck at 7000 feet AGL
Weather: no significant weather observed at this time

METAR text: KBUF 210054Z 05005KT 10SM FEW050 OVC100 07/M03 A3007 RMK AO2 SLP189 T00721033
Conditions at: KBUF (BUFFALO/CHEEKTOW, NY, US) observed 0054 UTC 21 March 2019
Temperature: 7.2°C (45°F)
Dewpoint: -3.3°C (26°F) [RH = 47%]
Pressure (altimeter): 30.07 inches Hg (1018.4 mb)
[Sea-level pressure: 1018.9 mb]
Winds: from the NE (50 degrees) at 6 MPH (5 knots; 2.6 m/s)
Visibility: 10 or more miles (16+ km)
Ceiling: 10000 feet AGL
Clouds: few clouds at 5000 feet AGL
overcast cloud deck at 10000 feet AGL
Weather: no significant weather observed at this time

Forecast for: KBUF (BUFFALO/CHEEKTOW, NY, US)
Text: KBUF 221135Z 2212/2312 27008KT P6SM VCSH OVC025
Forecast period: 1200 to 1400 UTC 22 March 2019
Forecast type: FROM: standard forecast or significant change
Winds: from the W (270 degrees) at 9 MPH (8 knots; 4.1 m/s)
Visibility: 6 or more miles 10+ km)
Ceiling: 2500 feet AGL
Clouds: overcast cloud deck at 2500 feet AGL
Weather: VCSH  (showers in vicinity)
Text: FM221400 27008KT 5SM -SHRASN OVC015
Forecast period: 1400 to 1900 UTC 22 March 2019
Forecast type: FROM: standard forecast or significant change
Winds: from the W (270 degrees) at 9 MPH (8 knots; 4.1 m/s)
Visibility: 5 miles (8 km)
Ceiling: 1500 feet AGL
Clouds: overcast cloud deck at 1500 feet AGL
Weather: -SHRA -SHSN  (light rain showers, light snow showers)
Text: FM221900 31012G18KT 2SM -SHSN OVC015
Forecast period: 1900 to 2200 UTC 22 March 2019
Forecast type: FROM: standard forecast or significant change
Winds: from the NW (310 degrees) at 14 MPH (12 knots; 6.2 m/s)
gusting to 21 MPH (18 knots; 9.3 m/s)
Visibility: 2.00 miles (3.22 km)
Ceiling: 1500 feet AGL
Clouds: overcast cloud deck at 1500 feet AGL
Weather: -SHSN  (light snow showers)
Text: FM222200 31018G27KT 1SM -SHSN OVC025
Forecast period: 2200 UTC 22 March 2019 to 0200 UTC 23 March 2019
Forecast type: FROM: standard forecast or significant change
Winds: from the NW (310 degrees) at 21 MPH (18 knots; 9.3 m/s)
gusting to 31 MPH (27 knots; 13.9 m/s)
Visibility: 1.00 miles (1.61 km)
Ceiling: 2500 feet AGL
Clouds: overcast cloud deck at 2500 feet AGL
Weather: -SHSN  (light snow showers)
Text: FM230200 31015G23KT P6SM VCSH OVC025
Forecast period: 0200 to 0500 UTC 23 March 2019
Forecast type: FROM: standard forecast or significant change
Winds: from the NW (310 degrees) at 17 MPH (15 knots; 7.7 m/s)
gusting to 26 MPH (23 knots; 11.8 m/s)
Visibility: 6 or more miles 10+ km)
Ceiling: 2500 feet AGL
Clouds: overcast cloud deck at 2500 feet AGL
Weather: VCSH  (showers in vicinity)
Text: FM230500 30013G21KT P6SM BKN035
Forecast period: 0500 to 1200 UTC 23 March 2019
Forecast type: FROM: standard forecast or significant change
Winds: from the WNW (300 degrees) at 15 MPH (13 knots; 6.7 m/s)
gusting to 24 MPH (21 knots; 10.8 m/s)
Visibility: 6 or more miles 10+ km)
Ceiling: 3500 feet AGL
Clouds: broken clouds at 3500 feet AGL
Weather: no significant weather forecast for this period